Time,TemperatureF,DewpointF,PressureIn,WindDirection,WindDirectionDegrees,WindSpeedMPH,WindSpeedGustMPH,Humidity,HourlyPrecipIn,Conditions,Clouds,dailyrainin,SoftwareType,DateUTC
2013-08-21 00:07:00,81.9,76.0,29.96,ESE,112,11.0,20.0,81,0.00,,,0.83,weatherlink.com 1.10,2013-08-21 05:07:00,
2013-08-21 00:22:00,81.9,76.0,29.96,SE,126,10.0,18.0,81,0.00,,,0.83,weatherlink.com 1.10,2013-08-21 05:22:00,
2013-08-21 00:37:00,81.9,76.0,29.97,ESE,104,12.0,16.0,81,0.00,,,0.83,weatherlink.com 1.10,2013-08-21 05:37:00,
2013-08-21 00:52:00,82.0,76.0,29.97,SE,124,14.0,19.0,82,0.00,,,0.83,weatherlink.com 1.10,2013-08-21 05:52:00,
2013-08-21 01:07:00,81.9,76.0,29.96,SE,129,10.0,19.0,82,0.00,,,0.83,weatherlink.com 1.10,2013-08-21 06:07:00,
2013-08-21 01:22:00,82.0,76.0,29.96,SE,125,10.0,19.0,82,0.00,,,0.83,weatherlink.com 1.10,2013-08-21 06:22:00,
2013-08-21 01:37:00,82.0,76.0,29.96,SE,127,12.0,18.0,83,0.00,,,0.83,weatherlink.com 1.10,2013-08-21 06:37:00,
2013-08-21 01:52:00,82.0,76.0,29.96,ESE,113,10.0,18.0,83,0.00,,,0.00,weatherlink.com 1.10,2013-08-21 06:52:00,
2013-08-21 02:07:00,81.9,76.0,29.96,ESE,122,6.0,19.0,83,0.00,,,0.00,weatherlink.com 1.10,2013-08-21 07:07:00,
2013-08-21 02:22:00,81.8,77.0,29.95,SE,140,8.0,15.0,84,0.00,,,0.00,weatherlink.com 1.10,2013-08-21 07:22:00,
2013-08-21 02:37:00,81.9,77.0,29.95,ESE,117,15.0,20.0,84,0.00,,,0.00,weatherlink.com 1.10,2013-08-21 07:37:00,
2013-08-21 02:52:00,81.9,77.0,29.95,SE,125,13.0,15.0,84,0.00,,,0.00,weatherlink.com 1.10,2013-08-21 07:52:00,
2013-08-21 03:07:00,81.8,77.0,29.95,ESE,120,10.0,18.0,84,0.00,,,0.00,weatherlink.com 1.10,2013-08-21 08:07:00,
2013-08-21 03:22:00,81.9,77.0,29.95,ESE,111,11.0,15.0,84,0.00,,,0.00,weatherlink.com 1.10,2013-08-21 08:22:00,
2013-08-21 03:37:00,81.9,77.0,29.95,SE,129,11.0,15.0,85,0.00,,,0.00,weatherlink.com 1.10,2013-08-21 08:37:00,
2013-08-21 03:52:00,81.8,77.0,29.94,SE,141,7.0,13.0,85,0.00,,,0.00,weatherlink.com 1.10,2013-08-21 08:52:00,
2013-08-21 04:07:00,81.8,77.0,29.95,SE,127,7.0,15.0,85,0.00,,,0.00,weatherlink.com 1.10,2013-08-21 09:07:00,
2013-08-21 04:22:00,81.7,77.0,29.95,SE,142,5.0,14.0,86,0.00,,,0.00,weatherlink.com 1.10,2013-08-21 09:22:00,
2013-08-21 04:37:00,81.8,77.0,29.95,SE,131,6.0,14.0,86,0.00,,,0.00,weatherlink.com 1.10,2013-08-21 09:37:00,
2013-08-21 04:52:00,81.7,77.0,29.95,ESE,118,5.0,11.0,86,0.00,,,0.00,weatherlink.com 1.10,2013-08-21 09:52:00,
2013-08-21 05:07:00,81.5,77.0,29.95,SE,140,7.0,12.0,86,0.00,,,0.00,weatherlink.com 1.10,2013-08-21 10:07:00,
2013-08-21 05:22:00,81.5,76.0,29.95,SE,138,10.0,13.0,84,0.00,,,0.00,weatherlink.com 1.10,2013-08-21 10:22:00,
2013-08-21 05:37:00,81.6,77.0,29.95,SE,130,6.0,12.0,85,0.00,,,0.00,weatherlink.com 1.10,2013-08-21 10:37:00,
2013-08-21 05:52:00,81.5,77.0,29.95,SE,133,6.0,10.0,85,0.00,,,0.00,weatherlink.com 1.10,2013-08-21 10:52:00,
2013-08-21 06:07:00,81.5,77.0,29.95,SE,137,8.0,10.0,86,0.00,,,0.00,weatherlink.com 1.10,2013-08-21 11:07:00,
2013-08-21 06:22:00,81.5,77.0,29.96,ESE,119,5.0,10.0,86,0.00,,,0.00,weatherlink.com 1.10,2013-08-21 11:22:00,
2013-08-21 06:37:00,81.4,76.0,29.96,SE,134,6.0,9.0,84,0.00,,,0.00,weatherlink.com 1.10,2013-08-21 11:37:00,
2013-08-21 06:52:00,81.4,77.0,29.96,SE,145,7.0,7.0,85,0.00,,,0.00,weatherlink.com 1.10,2013-08-21 11:52:00,
2013-08-21 07:07:00,81.4,76.0,29.97,SE,128,2.0,8.0,84,0.00,,,0.00,weatherlink.com 1.10,2013-08-21 12:07:00,
2013-08-21 07:22:00,81.5,77.0,29.97,SE,136,6.0,7.0,85,0.00,,,0.00,weatherlink.com 1.10,2013-08-21 12:22:00,
2013-08-21 07:37:00,81.8,77.0,29.97,ESE,123,6.0,9.0,86,0.00,,,0.00,weatherlink.com 1.10,2013-08-21 12:37:00,
2013-08-21 07:52:00,82.3,77.0,29.97,ESE,121,6.0,10.0,84,0.00,,,0.00,weatherlink.com 1.10,2013-08-21 12:52:00,
2013-08-21 08:07:00,82.6,77.0,29.98,SE,132,6.0,9.0,83,0.00,,,0.00,weatherlink.com 1.10,2013-08-21 13:07:00,
2013-08-21 08:22:00,82.5,77.0,29.99,SE,131,7.0,10.0,83,0.00,,,0.00,weatherlink.com 1.10,2013-08-21 13:22:00,
2013-08-21 08:37:00,82.4,77.0,29.99,SSE,152,6.0,10.0,83,0.00,,,0.00,weatherlink.com 1.10,2013-08-21 13:37:00,
2013-08-21 08:52:00,83.5,77.0,29.99,SE,146,5.0,9.0,80,0.00,,,0.00,weatherlink.com 1.10,2013-08-21 13:52:00,
2013-08-21 09:07:00,83.5,77.0,29.99,SE,142,6.0,8.0,80,0.00,,,0.00,weatherlink.com 1.10,2013-08-21 14:07:00,
2013-08-21 09:22:00,83.3,77.0,30.00,ESE,111,3.0,7.0,80,0.00,,,0.00,weatherlink.com 1.10,2013-08-21 14:22:00,
2013-08-21 09:37:00,83.5,77.0,30.00,ESE,119,6.0,7.0,80,0.00,,,0.00,weatherlink.com 1.10,2013-08-21 14:37:00,
2013-08-21 09:52:00,84.8,77.0,30.00,SE,130,8.0,9.0,78,0.00,,,0.00,weatherlink.com 1.10,2013-08-21 14:52:00,
2013-08-21 10:07:00,85.2,77.0,30.00,ESE,118,7.0,11.0,77,0.00,,,0.00,weatherlink.com 1.10,2013-08-21 15:07:00,
2013-08-21 10:22:00,85.3,77.0,30.00,SE,126,8.0,11.0,77,0.00,,,0.00,weatherlink.com 1.10,2013-08-21 15:22:00,
2013-08-21 10:37:00,85.5,78.0,30.00,ENE,69,8.0,10.0,77,0.00,,,0.00,weatherlink.com 1.10,2013-08-21 15:37:00,
2013-08-21 10:52:00,85.7,78.0,30.00,SE,132,5.0,12.0,77,0.00,,,0.00,weatherlink.com 1.10,2013-08-21 15:52:00,
2013-08-21 11:07:00,85.4,77.0,30.00,East,86,8.0,10.0,77,0.00,,,0.00,weatherlink.com 1.10,2013-08-21 16:07:00,
2013-08-21 11:22:00,85.9,78.0,30.00,East,83,4.0,12.0,76,0.00,,,0.00,weatherlink.com 1.10,2013-08-21 16:22:00,
2013-08-21 11:38:00,85.2,78.0,30.01,ENE,74,8.0,11.0,78,0.00,,,0.00,weatherlink.com 1.10,2013-08-21 16:38:00,
2013-08-21 11:53:00,84.5,77.0,30.01,ENE,63,7.0,10.0,79,0.00,,,0.00,weatherlink.com 1.10,2013-08-21 16:53:00,
2013-08-21 12:08:00,84.8,78.0,30.01,ENE,74,7.0,10.0,79,0.00,,,0.00,weatherlink.com 1.10,2013-08-21 17:08:00,
2013-08-21 12:23:00,86.1,78.0,30.00,East,96,8.0,11.0,77,0.00,,,0.00,weatherlink.com 1.10,2013-08-21 17:23:00,
2013-08-21 12:38:00,85.5,77.0,30.00,East,84,11.0,12.0,76,0.00,,,0.00,weatherlink.com 1.10,2013-08-21 17:38:00,
2013-08-21 12:53:00,84.6,77.0,30.00,ESE,106,6.0,13.0,78,0.00,,,0.00,weatherlink.com 1.10,2013-08-21 17:53:00,
2013-08-21 13:08:00,85.3,77.0,30.00,East,92,8.0,13.0,77,0.00,,,0.00,weatherlink.com 1.10,2013-08-21 18:08:00,
2013-08-21 13:23:00,86.1,78.0,29.99,ESE,104,9.0,14.0,76,0.00,,,0.00,weatherlink.com 1.10,2013-08-21 18:23:00,
2013-08-21 13:38:00,86.2,77.0,29.99,East,90,9.0,15.0,75,0.00,,,0.00,weatherlink.com 1.10,2013-08-21 18:38:00,
2013-08-21 14:08:00,87.5,78.0,29.99,ESE,104,8.0,16.0,73,0.00,,,0.00,weatherlink.com 1.10,2013-08-21 19:08:00,
2013-08-21 14:23:00,87.0,78.0,29.99,East,86,11.0,15.0,75,0.00,,,0.00,weatherlink.com 1.10,2013-08-21 19:23:00,
2013-08-21 14:38:00,87.5,78.0,29.99,East,100,12.0,14.0,73,0.00,,,0.00,weatherlink.com 1.10,2013-08-21 19:38:00,
2013-08-21 14:53:00,87.4,78.0,29.99,ESE,103,10.0,16.0,74,0.00,,,0.00,weatherlink.com 1.10,2013-08-21 19:53:00,
2013-08-21 15:08:00,87.1,77.0,29.98,East,94,13.0,15.0,72,0.00,,,0.00,weatherlink.com 1.10,2013-08-21 20:08:00,
2013-08-21 15:23:00,88.0,77.0,29.97,ESE,102,12.0,15.0,70,0.00,,,0.00,weatherlink.com 1.10,2013-08-21 20:23:00,
2013-08-21 15:38:00,87.6,78.0,29.96,ESE,119,14.0,16.0,72,0.00,,,0.00,weatherlink.com 1.10,2013-08-21 20:38:00,
2013-08-21 15:53:00,86.9,76.0,29.96,East,93,10.0,16.0,71,0.00,,,0.00,weatherlink.com 1.10,2013-08-21 20:53:00,
2013-08-21 16:08:00,87.1,78.0,29.96,ESE,108,11.0,13.0,73,0.00,,,0.00,weatherlink.com 1.10,2013-08-21 21:08:00,
2013-08-21 16:23:00,86.9,78.0,29.96,ESE,121,12.0,16.0,75,0.00,,,0.00,weatherlink.com 1.10,2013-08-21 21:23:00,
2013-08-21 16:38:00,86.0,77.0,29.96,SE,139,7.0,15.0,75,0.00,,,0.00,weatherlink.com 1.10,2013-08-21 21:38:00,
2013-08-21 16:53:00,86.7,77.0,29.96,ESE,123,12.0,16.0,72,0.00,,,0.00,weatherlink.com 1.10,2013-08-21 21:53:00,
2013-08-21 17:08:00,86.6,77.0,29.97,East,100,11.0,15.0,73,0.00,,,0.00,weatherlink.com 1.10,2013-08-21 22:08:00,
2013-08-21 17:23:00,86.6,77.0,29.97,East,100,11.0,13.0,74,0.00,,,0.00,weatherlink.com 1.10,2013-08-21 22:23:00,
2013-08-21 17:38:00,86.2,77.0,29.96,ESE,108,11.0,14.0,74,0.00,,,0.00,weatherlink.com 1.10,2013-08-21 22:38:00,
2013-08-21 17:53:00,86.0,76.0,29.96,East,98,12.0,14.0,73,0.00,,,0.00,weatherlink.com 1.10,2013-08-21 22:53:00,
2013-08-21 18:08:00,86.0,76.0,29.96,East,91,10.0,15.0,73,0.00,,,0.00,weatherlink.com 1.10,2013-08-21 23:08:00,
2013-08-21 18:23:00,85.8,77.0,29.95,SE,125,12.0,16.0,74,0.00,,,0.00,weatherlink.com 1.10,2013-08-21 23:23:00,
2013-08-21 18:38:00,85.6,77.0,29.95,ESE,105,12.0,18.0,76,0.00,,,0.00,weatherlink.com 1.10,2013-08-21 23:38:00,
2013-08-21 18:53:00,85.2,77.0,29.96,ESE,120,6.0,15.0,76,0.00,,,0.00,weatherlink.com 1.10,2013-08-21 23:53:00,
2013-08-21 19:08:00,84.7,77.0,29.96,SE,126,7.0,15.0,78,0.00,,,0.00,weatherlink.com 1.10,2013-08-22 00:08:00,
2013-08-21 19:23:00,84.3,76.0,29.96,SE,127,8.0,13.0,77,0.00,,,0.00,weatherlink.com 1.10,2013-08-22 00:23:00,
2013-08-21 19:38:00,84.1,77.0,29.95,ESE,104,7.0,13.0,78,0.00,,,0.00,weatherlink.com 1.10,2013-08-22 00:38:00,
2013-08-21 19:53:00,83.9,76.0,29.96,ESE,113,9.0,14.0,78,0.00,,,0.00,weatherlink.com 1.10,2013-08-22 00:53:00,
2013-08-21 20:08:00,83.6,77.0,29.96,ESE,113,9.0,11.0,79,0.00,,,0.00,weatherlink.com 1.10,2013-08-22 01:08:00,
2013-08-21 20:23:00,83.4,76.0,29.96,SE,135,10.0,11.0,78,0.00,,,0.00,weatherlink.com 1.10,2013-08-22 01:23:00,
2013-08-21 20:38:00,83.5,76.0,29.96,SE,127,8.0,13.0,78,0.00,,,0.00,weatherlink.com 1.10,2013-08-22 01:38:00,
2013-08-21 20:53:00,83.4,76.0,29.96,ESE,109,9.0,13.0,79,0.00,,,0.00,weatherlink.com 1.10,2013-08-22 01:53:00,
2013-08-21 21:08:00,83.4,76.0,29.96,SE,130,10.0,12.0,78,0.00,,,0.00,weatherlink.com 1.10,2013-08-22 02:08:00,
2013-08-21 21:23:00,83.1,76.0,29.95,SE,128,4.0,11.0,80,0.00,,,0.00,weatherlink.com 1.10,2013-08-22 02:23:00,
2013-08-21 21:38:00,83.0,77.0,29.96,East,101,5.0,9.0,81,0.00,,,0.00,weatherlink.com 1.10,2013-08-22 02:38:00,
2013-08-21 21:53:00,82.9,77.0,29.97,ESE,117,1.0,7.0,81,0.00,,,0.00,weatherlink.com 1.10,2013-08-22 02:53:00,
2013-08-21 22:08:00,82.8,76.0,29.97,ESE,123,5.0,10.0,81,0.00,,,0.00,weatherlink.com 1.10,2013-08-22 03:08:00,
2013-08-21 22:23:00,82.7,77.0,29.97,East,100,6.0,9.0,82,0.00,,,0.00,weatherlink.com 1.10,2013-08-22 03:23:00,
2013-08-21 22:38:00,82.6,76.0,29.97,ESE,119,6.0,11.0,81,0.00,,,0.00,weatherlink.com 1.10,2013-08-22 03:38:00,
2013-08-21 22:53:00,82.6,76.0,29.97,East,89,4.0,10.0,80,0.00,,,0.00,weatherlink.com 1.10,2013-08-22 03:53:00,
2013-08-21 23:08:00,82.7,77.0,29.98,ESE,102,8.0,9.0,82,0.00,,,0.00,weatherlink.com 1.10,2013-08-22 04:08:00,
2013-08-21 23:23:00,82.5,77.0,29.98,SE,125,5.0,11.0,83,0.00,,,0.00,weatherlink.com 1.10,2013-08-22 04:23:00,
2013-08-21 23:38:00,82.4,77.0,29.98,ESE,109,4.0,11.0,83,0.00,,,0.00,weatherlink.com 1.10,2013-08-22 04:38:00,
2013-08-21 23:53:00,82.2,77.0,29.98,ESE,121,6.0,9.0,84,0.00,,,0.00,weatherlink.com 1.10,2013-08-22 04:53:00,